Data for 06/15/2016

Time Sea-Level Adjusted Pressure Absolute Pressure Temperature Relative Humidity Dew Point   
(mb) (inHg) (mb) (inHg) (C) (F) (%) (C) (F)
00:05 1015 29.97 844 24.92 6.5 43.8 76 2.6 36.7
00:10 1015 29.97 845 24.95 6.7 44 76 2.7 36.8
00:15 1015 29.97 845 24.95 6.7 44 76 2.8 37
00:20 1015 29.97 845 24.95 6.7 44 76 2.8 37
00:25 1015 29.97 845 24.95 6.6 43.9 76 2.8 37
00:30 1016 30 845 24.95 6.5 43.8 77 2.7 36.9
00:35 1015 29.97 845 24.95 6.5 43.8 76 2.7 36.9
00:40 1015 29.97 845 24.95 6.6 43.8 76 2.7 36.8
00:45 1015 29.97 845 24.95 6.7 44.1 75 2.6 36.7
00:50 1015 29.97 845 24.95 6.9 44.4 74 2.6 36.7
00:55 1015 29.97 844 24.92 6.9 44.4 75 2.7 36.9
01:00 1015 29.97 844 24.92 6.8 44.3 75 2.7 36.8
01:05 1015 29.97 844 24.92 6.7 44 75 2.5 36.6
01:10 1015 29.97 844 24.92 6.7 44 75 2.5 36.5
01:15 1015 29.97 844 24.92 6.6 44 74 2.3 36.2
01:20 1015 29.97 844 24.92 6.7 44 74 2.3 36.2
01:25 1015 29.97 844 24.92 6.8 44.2 73 2.4 36.3
01:30 1015 29.97 844 24.92 6.9 44.4 73 2.4 36.4
01:35 1015 29.97 844 24.92 7 44.6 72 2.2 36
01:40 1015 29.97 844 24.92 7.1 44.8 71 2.3 36.1
01:45 1015 29.97 844 24.92 7.1 44.8 71 2.2 36
01:50 1015 29.97 844 24.92 7.2 44.9 71 2.2 36
01:55 1015 29.97 844 24.92 7.2 45 70 2.2 35.9
02:00 1015 29.97 844 24.92 7.3 45.2 70 2.2 35.9
02:05 1015 29.97 844 24.92 7.4 45.3 69 2.2 35.9
02:10 1015 29.97 844 24.92 7.4 45.4 69 2.1 35.8
02:15 1015 29.97 844 24.92 7.4 45.3 69 2.1 35.7
02:20 1015 29.97 844 24.92 7.4 45.4 69 2 35.7
02:25 1015 29.97 844 24.92 7.5 45.5 68 2.1 35.7
02:30 1015 29.97 844 24.92 7.5 45.5 68 2.1 35.7
02:35 1015 29.97 844 24.92 7.4 45.3 70 2.2 36
02:40 1015 29.97 845 24.95 7.4 45.2 70 2.2 35.9
02:45 1015 29.97 845 24.95 7.4 45.3 69 2.2 35.9
02:50 1015 29.97 845 24.95 7.4 45.4 70 2.3 36.2
02:55 1015 29.97 845 24.95 7.4 45.3 71 2.4 36.4
03:00 1015 29.97 845 24.95 7.4 45.4 71 2.5 36.4
03:05 1015 29.97 845 24.95 7.6 45.6 70 2.5 36.6
03:10 1015 29.97 845 24.95 7.6 45.7 70 2.6 36.7
03:15 1016 30 845 24.95 7.5 45.5 74 3.1 37.6
03:20 1016 30 845 24.95 7.1 44.8 74 2.8 37.1
03:25 1016 30 845 24.95 7 44.7 73 2.6 36.7
03:30 1016 30 845 24.95 7 44.6 72 2.3 36.2
03:35 1016 30 845 24.95 7.1 44.7 70 2 35.6
03:40 1016 30 845 24.95 7.1 44.8 69 1.9 35.4
03:45 1016 30 845 24.95 7.1 44.7 69 1.9 35.4
03:50 1016 30 845 24.95 7.2 44.9 69 1.9 35.3
03:55 1016 30 845 24.95 7.3 45.1 69 1.9 35.5
04:00 1016 30 845 24.95 7.3 45.2 69 2 35.5
04:05 1016 30 845 24.95 7.3 45.2 70 2.2 36
04:10 1016 30 845 24.95 7.4 45.3 70 2.3 36.2
04:15 1016 30 845 24.95 7.4 45.3 71 2.5 36.6
04:20 1016 30 846 24.98 7.3 45.1 73 2.8 37
04:25 1016 30 846 24.98 7.2 44.9 75 3 37.4
04:30 1016 30 846 24.98 6.9 44.4 77 3.1 37.6
04:35 1017 30.03 846 24.98 6.7 44 77 3 37.4
04:40 1017 30.03 846 24.98 6.5 43.7 79 3.2 37.7
04:45 1017 30.03 846 24.98 6.3 43.4 79 2.9 37.3
04:50 1017 30.03 846 24.98 6.2 43.1 81 3.2 37.7
04:55 1017 30.03 846 24.98 6.1 42.9 82 3.2 37.7
05:00 1017 30.03 846 24.98 6 42.8 82 3.1 37.6
05:05 1017 30.03 846 24.98 5.9 42.6 83 3.2 37.7
05:10 1017 30.03 846 24.98 5.8 42.5 82 3 37.5
05:15 1017 30.03 846 24.98 5.7 42.3 84 3.2 37.7
05:20 1017 30.03 846 24.98 5.7 42.2 84 3.1 37.6
05:25 1017 30.03 846 24.98 5.6 42.1 84 3.1 37.6
05:30 1017 30.03 846 24.98 5.6 42 84 3.1 37.5
05:35 1017 30.03 846 24.98 5.5 41.9 86 3.3 37.9
05:40 1017 30.03 846 24.98 5.5 41.8 85 3.2 37.7
05:45 1017 30.03 846 24.98 5.4 41.7 86 3.3 37.9
05:50 1017 30.03 846 24.98 5.4 41.7 86 3.3 37.9
05:55 1017 30.03 846 24.98 5.3 41.5 87 3.2 37.8
06:00 1017 30.03 846 24.98 5.3 41.5 87 3.3 37.9
06:05 1017 30.03 846 24.98 5.3 41.5 86 3.1 37.6
06:10 1017 30.03 847 25.01 5.2 41.4 87 3.2 37.8
06:15 1017 30.03 846 24.98 5.2 41.3 87 3.1 37.7
06:20 1017 30.03 846 24.98 5.2 41.3 88 3.3 37.9
06:25 1017 30.03 846 24.98 5.3 41.6 87 3.3 37.9
06:30 1017 30.03 846 24.98 5.3 41.5 86 3.2 37.8
06:35 1017 30.03 846 24.98 5.3 41.5 86 3.2 37.7
06:40 1017 30.03 846 24.98 5.3 41.6 85 3.1 37.5
06:45 1017 30.03 846 24.98 5.3 41.5 87 3.2 37.7
06:50 1017 30.03 846 24.98 5.4 41.7 86 3.2 37.8
06:55 1017 30.03 846 24.98 5.5 41.9 85 3.1 37.7
07:00 1017 30.03 846 24.98 5.6 42.1 86 3.5 38.3
07:05 1017 30.03 846 24.98 5.8 42.5 84 3.4 38.1
07:10 1017 30.03 846 24.98 5.9 42.6 84 3.3 38
07:15 1017 30.03 846 24.98 5.9 42.6 84 3.4 38.1
07:20 1017 30.03 846 24.98 5.7 42.3 84 3.2 37.7
07:25 1017 30.03 846 24.98 5.7 42.2 84 3.1 37.6
07:30 1017 30.03 847 25.01 5.7 42.2 83 3 37.4
07:35 1017 30.03 846 24.98 5.6 42.2 84 3.1 37.6
07:40 1017 30.03 846 24.98 5.8 42.5 84 3.3 37.9
07:45 1017 30.03 847 25.01 5.7 42.3 84 3.2 37.8
07:50 1017 30.03 846 24.98 5.7 42.2 85 3.3 38
07:55 1017 30.03 846 24.98 5.8 42.5 84 3.4 38.1
08:00 1017 30.03 846 24.98 5.9 42.6 84 3.3 37.9
08:05 1017 30.03 846 24.98 5.9 42.7 86 3.7 38.7
08:10 1017 30.03 846 24.98 6.3 43.3 80 3.1 37.7
08:15 1017 30.03 846 24.98 6.5 43.7 81 3.5 38.3
08:20 1017 30.03 846 24.98 7.1 44.8 79 3.8 38.8
08:25 1017 30.03 846 24.98 7.2 44.9 75 3.2 37.7
08:30 1017 30.03 846 24.98 7.2 45 72 2.6 36.6
08:35 1017 30.03 846 24.98 7.3 45.2 75 3.2 37.7
08:40 1017 30.03 846 24.98 7.5 45.5 73 3.1 37.5
08:45 1017 30.03 846 24.98 7.1 44.8 77 3.3 37.9
08:50 1017 30.03 846 24.98 7 44.7 80 3.8 38.8
08:55 1017 30.03 846 24.98 7 44.7 75 3 37.4
09:00 1017 30.03 846 24.98 6.9 44.4 79 3.4 38.2
09:05 1017 30.03 846 24.98 6.8 44.3 78 3.2 37.8
09:10 1017 30.03 846 24.98 6.8 44.3 80 3.6 38.5
09:15 1016 30 846 24.98 7 44.5 79 3.6 38.5
09:20 1016 30 846 24.98 7.2 44.9 79 3.7 38.7
09:25 1016 30 846 24.98 7.2 45 80 4 39.3
09:30 1016 30 845 24.95 7.3 45.2 79 4 39.3
09:35 1016 30 845 24.95 7.7 45.8 78 4.2 39.5
09:40 1016 30 845 24.95 7.8 46 80 4.5 40.1
09:45 1016 30 845 24.95 7.9 46.2 79 4.4 40
09:50 1016 30 845 24.95 8.3 46.9 78 4.7 40.4
09:55 1016 30 845 24.95 8.4 47.1 76 4.4 40
10:00 1016 30 845 24.95 8.6 47.4 77 4.7 40.5
10:05 1016 30 845 24.95 8.9 48.1 78 5.2 41.4
10:10 1016 30 845 24.95 9.3 48.7 73 4.7 40.4
10:15 1016 30 845 24.95 9.5 49.2 73 4.9 40.9
10:20 1015 29.97 845 24.95 9.7 49.5 71 4.8 40.6
10:25 1016 30 845 24.95 9.6 49.3 71 4.6 40.3
10:30 1015 29.97 845 24.95 9.7 49.5 71 4.6 40.4
10:35 1015 29.97 845 24.95 9.7 49.5 71 4.7 40.5
10:40 1015 29.97 845 24.95 9.8 49.6 68 4.3 39.7
10:45 1015 29.97 845 24.95 9.8 49.6 68 4.1 39.5
10:50 1015 29.97 845 24.95 9.9 49.7 69 4.5 40.1
10:55 1015 29.97 845 24.95 10 50 68 4.4 40
11:00 1015 29.97 845 24.95 10.1 50.2 68 4.5 40
11:05 1015 29.97 845 24.95 10.3 50.6 68 4.6 40.3
11:10 1015 29.97 845 24.95 10.5 50.9 67 4.7 40.5
11:15 1015 29.97 845 24.95 10.4 50.7 67 4.5 40.1
11:20 1015 29.97 845 24.95 10.3 50.5 67 4.4 40
11:25 1015 29.97 844 24.92 10.6 51 65 4.3 39.7
11:30 1015 29.97 845 24.95 10.7 51.3 65 4.6 40.2
11:35 1015 29.97 845 24.95 11.1 52 63 4.4 39.9
11:40 1015 29.97 845 24.95 11.4 52.6 63 4.8 40.6
11:45 1015 29.97 844 24.92 11.4 52.4 62 4.4 39.9
11:50 1015 29.97 844 24.92 11.7 53.1 62 4.8 40.6
11:55 1015 29.97 844 24.92 12.2 53.9 59 4.5 40
12:00 1015 29.97 844 24.92 12 53.6 62 5 40.9
12:05 1015 29.97 844 24.92 12.1 53.7 63 5.3 41.6
12:10 1015 29.97 844 24.92 11.9 53.4 64 5.4 41.8
12:15 1015 29.97 844 24.92 12.1 53.8 61 5 40.9
12:20 1015 29.97 844 24.92 12.4 54.3 62 5.3 41.5
12:25 1015 29.97 844 24.92 12.4 54.3 61 5.1 41.1
12:30 1015 29.97 844 24.92 12.2 54 62 5.2 41.4
12:35 1015 29.97 844 24.92 11.9 53.4 64 5.4 41.8
12:40 1015 29.97 844 24.92 12.1 53.7 63 5.2 41.4
12:45 1015 29.97 844 24.92 12.1 53.7 62 5 41.1
12:50 1015 29.97 844 24.92 12.2 54 61 5 41
12:55 1015 29.97 844 24.92 12.6 54.6 61 5.2 41.3
13:00 1015 29.97 844 24.92 12.4 54.3 62 5.3 41.6
13:05 1015 29.97 844 24.92 12.8 55 60 5.3 41.5
13:10 1015 29.97 844 24.92 12.6 54.7 61 5.4 41.7
13:15 1015 29.97 844 24.92 12.8 55 60 5.2 41.4
13:20 1014 29.94 844 24.92 12.9 55.3 61 5.8 42.4
13:25 1014 29.94 844 24.92 13.1 55.6 61 5.8 42.5
13:30 1014 29.94 844 24.92 12.8 55.1 62 5.7 42.3
13:35 1014 29.94 843 24.89 12.8 55 60 5.4 41.7
13:40 1014 29.94 843 24.89 13.2 55.8 61 5.8 42.5
13:45 1014 29.94 843 24.89 13.5 56.2 57 5.2 41.4
13:50 1014 29.94 843 24.89 13.8 56.8 60 6.3 43.3
13:55 1014 29.94 843 24.89 13.8 56.8 60 6.3 43.3
14:00 1014 29.94 843 24.89 13.5 56.4 61 6.1 43.1
14:05 1014 29.94 843 24.89 13.3 55.9 62 6.3 43.4
14:10 1014 29.94 843 24.89 13 55.4 63 6.3 43.3
14:15 1014 29.94 843 24.89 13.6 56.5 61 6.4 43.5
14:20 1014 29.94 843 24.89 13.8 56.8 59 6.1 42.9
14:25 1014 29.94 843 24.89 13.8 56.8 61 6.4 43.6
14:30 1013 29.91 843 24.89 14.1 57.3 59 6.2 43.2
14:35 1013 29.91 842 24.86 14.1 57.4 57 5.9 42.6
14:40 1013 29.91 842 24.86 14.3 57.8 55 5.5 41.9
14:45 1013 29.91 842 24.86 14.9 58.7 54 5.8 42.4
14:50 1013 29.91 842 24.86 15 59.1 53 5.7 42.3
14:55 1013 29.91 842 24.86 15.7 60.2 53 6.2 43.2
15:00 1013 29.91 842 24.86 15.5 59.9 54 6.4 43.5
15:05 1013 29.91 842 24.86 15.8 60.4 51 5.7 42.3
15:10 1013 29.91 842 24.86 15.8 60.5 52 6.1 43
15:15 1013 29.91 842 24.86 15.9 60.6 52 6.1 43
15:20 1013 29.91 842 24.86 15.7 60.2 55 6.6 43.9
15:25 1013 29.91 842 24.86 15.6 60 56 7 44.5
15:30 1013 29.91 842 24.86 15.9 60.5 54 6.7 44.1
15:35 1013 29.91 842 24.86 16.1 61.1 57 7.7 45.8
15:40 1013 29.91 842 24.86 15.8 60.4 57 7.2 45
15:45 1013 29.91 842 24.86 15.2 59.4 59 7.3 45.2
15:50 1012 29.88 842 24.86 15 58.9 58 6.8 44.3
15:55 1012 29.88 842 24.86 15 58.9 58 6.8 44.2
16:00 1013 29.91 842 24.86 14.9 58.8 59 6.9 44.4
16:05 1012 29.88 842 24.86 14.9 58.8 58 6.8 44.3
16:10 1012 29.88 842 24.86 14.9 58.8 59 7.1 44.7
16:15 1012 29.88 842 24.86 14.9 58.9 60 7.3 45.2
16:20 1012 29.88 842 24.86 14.8 58.6 60 7.2 45
16:25 1012 29.88 841 24.83 14.9 58.8 58 6.7 44
16:30 1012 29.88 841 24.83 15.3 59.5 57 6.9 44.5
16:35 1012 29.88 841 24.83 15.1 59.3 61 7.7 45.9
16:40 1012 29.88 841 24.83 14.9 58.8 59 7.1 44.8
16:45 1012 29.88 841 24.83 15.4 59.7 58 7.1 44.9
16:50 1012 29.88 841 24.83 15 59 61 7.6 45.7
16:55 1012 29.88 841 24.83 14.4 58 60 6.9 44.4
17:00 1012 29.88 841 24.83 14.5 58.1 62 7.3 45.2
17:05 1012 29.88 841 24.83 14.8 58.6 61 7.3 45.2
17:10 1012 29.88 841 24.83 15.2 59.4 59 7.4 45.3
17:15 1012 29.88 841 24.83 15.4 59.7 59 7.4 45.4
17:20 1012 29.88 841 24.83 15 59 60 7.4 45.3
17:25 1012 29.88 841 24.83 14.9 58.9 62 7.7 45.9
17:30 1012 29.88 841 24.83 14.9 58.9 61 7.6 45.7
17:35 1012 29.88 841 24.83 14.8 58.7 59 7.1 44.7
17:40 1012 29.88 841 24.83 14.8 58.6 59 6.9 44.5
17:45 1011 29.85 840 24.81 14.7 58.4 63 7.8 46.1
17:50 1011 29.85 840 24.81 14.2 57.5 65 7.8 46.1
17:55 1011 29.85 840 24.81 14.3 57.8 64 7.7 45.9
18:00 1011 29.85 841 24.83 14.9 58.9 59 7.1 44.8
18:05 1011 29.85 840 24.81 15.4 59.6 57 7 44.6
18:10 1011 29.85 840 24.81 15.3 59.5 57 7 44.6
18:15 1011 29.85 840 24.81 15.3 59.5 57 6.9 44.4
18:20 1011 29.85 841 24.83 15.1 59.2 58 7 44.5
18:25 1011 29.85 841 24.83 14.7 58.5 60 7.1 44.8
18:30 1011 29.85 841 24.83 14.2 57.6 61 7 44.5
18:35 1011 29.85 841 24.83 13.9 57 61 6.6 43.9
18:40 1011 29.85 841 24.83 13.7 56.7 62 6.5 43.8
18:45 1011 29.85 841 24.83 13.5 56.3 64 6.8 44.2
18:50 1011 29.85 841 24.83 13.4 56.1 63 6.4 43.6
18:55 1011 29.85 841 24.83 13.3 55.9 62 6.2 43.1
19:00 1012 29.88 841 24.83 13.1 55.5 64 6.5 43.6
19:05 1012 29.88 841 24.83 12.9 55.1 65 6.5 43.7
19:10 1012 29.88 841 24.83 12.7 54.8 66 6.5 43.7
19:15 1012 29.88 841 24.83 12.6 54.7 66 6.4 43.6
19:20 1012 29.88 842 24.86 12.5 54.4 67 6.5 43.7
19:25 1012 29.88 841 24.83 12.3 54.2 67 6.5 43.7
19:30 1012 29.88 841 24.83 12.4 54.3 70 7 44.7
19:35 1012 29.88 841 24.83 12.1 53.8 75 7.8 46
19:40 1012 29.88 841 24.83 11.6 52.8 79 8 46.4
19:45 1012 29.88 841 24.83 11.2 52.2 82 8.3 46.9
19:50 1012 29.88 841 24.83 10.7 51.3 84 8.2 46.7
19:55 1012 29.88 841 24.83 10.5 50.8 85 8.1 46.5
20:00 1012 29.88 841 24.83 10.4 50.7 84 7.7 45.9
20:05 1012 29.88 841 24.83 10.5 50.9 85 8.2 46.7
20:10 1012 29.88 841 24.83 10.7 51.2 85 8.3 47
20:15 1012 29.88 841 24.83 10.8 51.5 83 8.1 46.5
20:20 1012 29.88 841 24.83 10.9 51.7 83 8.2 46.8
20:25 1012 29.88 841 24.83 11 51.8 85 8.6 47.4
20:30 1012 29.88 841 24.83 11 51.9 80 7.8 46
20:35 1012 29.88 841 24.83 11 51.7 80 7.7 45.8
20:40 1012 29.88 841 24.83 10.7 51.3 82 7.9 46.2
20:45 1012 29.88 841 24.83 10.4 50.8 83 7.6 45.7
20:50 1012 29.88 841 24.83 10.3 50.5 81 7.3 45.1
20:55 1012 29.88 841 24.83 10.1 50.2 82 7.2 45
21:00 1012 29.88 841 24.83 10 50.1 82 7.1 44.9
21:05 1012 29.88 841 24.83 10 50 83 7.2 44.9
21:10 1012 29.88 841 24.83 9.9 49.8 84 7.3 45.2
21:15 1012 29.88 841 24.83 9.9 49.8 84 7.3 45.2
21:20 1012 29.88 841 24.83 9.9 49.7 84 7.3 45.2
21:25 1012 29.88 841 24.83 9.9 49.8 85 7.5 45.4
21:30 1012 29.88 841 24.83 9.9 49.9 84 7.4 45.3
21:35 1012 29.88 841 24.83 9.7 49.4 86 7.4 45.3
21:40 1012 29.88 841 24.83 9.5 49.1 87 7.4 45.2
21:45 1012 29.88 841 24.83 9.4 48.9 86 7.1 44.8
21:50 1011 29.85 841 24.83 9.5 49.1 85 7.2 44.9
21:55 1011 29.85 840 24.81 9.4 49 86 7.1 44.9
22:00 1011 29.85 840 24.81 9.2 48.5 86 7 44.6
22:05 1011 29.85 840 24.81 9.3 48.8 85 7 44.5
22:10 1011 29.85 840 24.81 9.4 48.9 85 6.9 44.5
22:15 1011 29.85 840 24.81 9.5 49.1 85 7.1 44.8
22:20 1011 29.85 841 24.83 9.5 49.1 85 7.1 44.9
22:25 1012 29.88 841 24.83 9.5 49 85 7 44.6
22:30 1013 29.91 842 24.86 9.6 49.2 84 7.1 44.7
22:35 1012 29.88 842 24.86 9.6 49.3 84 7 44.6
22:40 1012 29.88 841 24.83 9.6 49.2 85 7.2 44.9
22:45 1012 29.88 841 24.83 9.5 49.1 86 7.2 45
22:50 1012 29.88 841 24.83 9.5 49 87 7.4 45.3
22:55 1012 29.88 841 24.83 9.3 48.8 87 7.3 45.2
23:00 1012 29.88 841 24.83 9.2 48.6 87 7.2 45
23:05 1011 29.85 840 24.81 8.9 48.1 90 7.4 45.3
23:10 1011 29.85 841 24.83 8.9 48 90 7.4 45.3
23:15 1012 29.88 841 24.83 8.9 48.1 90 7.4 45.4
23:20 1012 29.88 841 24.83 8.9 48.1 90 7.3 45.2
23:25 1012 29.88 841 24.83 8.9 47.9 90 7.3 45.1
23:30 1012 29.88 841 24.83 8.8 47.9 90 7.3 45.1
23:35 1012 29.88 842 24.86 8.8 47.8 90 7.3 45.1
23:40 1013 29.91 842 24.86 8.6 47.5 91 7.2 45
23:45 1013 29.91 842 24.86 8.6 47.4 91 7.2 44.9
23:50 1012 29.88 842 24.86 8.4 47.2 91 7.1 44.7
23:55 1012 29.88 842 24.86 8.4 47.2 91 7.1 44.7
24:00 1012 29.88 841 24.83 8.4 47.1 91 7.1 44.7